sensor_id;sensor_type;location;lat;lon;timestamp;P1;durP1;ratioP1;P2;durP2;ratioP2
78901;SDS011;70441;44.758;37.686;2024-02-26T00:00:35;7.18;;;2.92;;
78901;SDS011;70441;44.758;37.686;2024-02-26T00:01:37;7.55;;;2.92;;
78901;SDS011;70441;44.758;37.686;2024-02-26T00:02:41;7.85;;;3.42;;
78901;SDS011;70441;44.758;37.686;2024-02-26T00:03:45;10.57;;;3.15;;
78901;SDS011;70441;44.758;37.686;2024-02-26T00:04:54;6.95;;;3.25;;
78901;SDS011;70441;44.758;37.686;2024-02-26T00:05:55;7.70;;;3.38;;
78901;SDS011;70441;44.758;37.686;2024-02-26T00:07:01;8.15;;;3.10;;
78901;SDS011;70441;44.758;37.686;2024-02-26T00:08:03;10.20;;;4.18;;
78901;SDS011;70441;44.758;37.686;2024-02-26T00:09:05;11.55;;;3.92;;
78901;SDS011;70441;44.758;37.686;2024-02-26T00:10:07;10.77;;;4.47;;
78901;SDS011;70441;44.758;37.686;2024-02-26T00:11:09;9.15;;;3.90;;
78901;SDS011;70441;44.758;37.686;2024-02-26T00:12:11;9.65;;;4.20;;
78901;SDS011;70441;44.758;37.686;2024-02-26T00:13:12;8.73;;;4.15;;
78901;SDS011;70441;44.758;37.686;2024-02-26T00:14:14;11.35;;;4.15;;
78901;SDS011;70441;44.758;37.686;2024-02-26T00:15:15;9.50;;;3.50;;
78901;SDS011;70441;44.758;37.686;2024-02-26T00:16:16;8.48;;;3.75;;
78901;SDS011;70441;44.758;37.686;2024-02-26T00:17:18;7.80;;;3.70;;
78901;SDS011;70441;44.758;37.686;2024-02-26T00:18:19;8.75;;;3.78;;
78901;SDS011;70441;44.758;37.686;2024-02-26T00:19:21;10.10;;;4.07;;
78901;SDS011;70441;44.758;37.686;2024-02-26T00:20:22;10.00;;;4.20;;
78901;SDS011;70441;44.758;37.686;2024-02-26T00:21:23;7.88;;;3.55;;
78901;SDS011;70441;44.758;37.686;2024-02-26T00:22:25;8.40;;;4.00;;
78901;SDS011;70441;44.758;37.686;2024-02-26T00:23:26;8.07;;;4.03;;
78901;SDS011;70441;44.758;37.686;2024-02-26T00:24:28;7.85;;;3.40;;
78901;SDS011;70441;44.758;37.686;2024-02-26T00:25:29;8.60;;;3.70;;
78901;SDS011;70441;44.758;37.686;2024-02-26T00:26:31;8.35;;;3.50;;
78901;SDS011;70441;44.758;37.686;2024-02-26T00:27:32;9.52;;;3.83;;
78901;SDS011;70441;44.758;37.686;2024-02-26T00:28:34;9.48;;;4.22;;
78901;SDS011;70441;44.758;37.686;2024-02-26T00:29:35;7.60;;;3.72;;
78901;SDS011;70441;44.758;37.686;2024-02-26T00:30:36;8.98;;;3.35;;
78901;SDS011;70441;44.758;37.686;2024-02-26T00:31:38;7.63;;;3.40;;
78901;SDS011;70441;44.758;37.686;2024-02-26T00:32:39;7.53;;;3.20;;
78901;SDS011;70441;44.758;37.686;2024-02-26T00:33:41;7.90;;;3.20;;
78901;SDS011;70441;44.758;37.686;2024-02-26T00:34:42;10.57;;;3.50;;
78901;SDS011;70441;44.758;37.686;2024-02-26T00:35:44;6.75;;;2.90;;
78901;SDS011;70441;44.758;37.686;2024-02-26T00:36:45;7.65;;;3.00;;
78901;SDS011;70441;44.758;37.686;2024-02-26T00:37:47;7.50;;;3.00;;
78901;SDS011;70441;44.758;37.686;2024-02-26T00:38:48;6.68;;;3.00;;
78901;SDS011;70441;44.758;37.686;2024-02-26T00:39:51;7.40;;;3.05;;
78901;SDS011;70441;44.758;37.686;2024-02-26T00:40:54;7.55;;;3.03;;
78901;SDS011;70441;44.758;37.686;2024-02-26T00:41:56;10.05;;;2.97;;
78901;SDS011;70441;44.758;37.686;2024-02-26T00:42:57;13.48;;;3.03;;
78901;SDS011;70441;44.758;37.686;2024-02-26T00:43:59;9.93;;;3.17;;
78901;SDS011;70441;44.758;37.686;2024-02-26T00:45:01;6.72;;;3.05;;
78901;SDS011;70441;44.758;37.686;2024-02-26T00:46:03;8.13;;;3.50;;
78901;SDS011;70441;44.758;37.686;2024-02-26T00:47:04;6.07;;;2.67;;
78901;SDS011;70441;44.758;37.686;2024-02-26T00:48:06;6.97;;;3.05;;
78901;SDS011;70441;44.758;37.686;2024-02-26T00:49:08;6.60;;;2.78;;
78901;SDS011;70441;44.758;37.686;2024-02-26T00:50:09;6.43;;;2.63;;
78901;SDS011;70441;44.758;37.686;2024-02-26T00:51:11;6.72;;;2.80;;
78901;SDS011;70441;44.758;37.686;2024-02-26T00:52:13;6.43;;;2.90;;
78901;SDS011;70441;44.758;37.686;2024-02-26T00:53:14;8.40;;;3.05;;
78901;SDS011;70441;44.758;37.686;2024-02-26T00:54:16;6.50;;;2.40;;
78901;SDS011;70441;44.758;37.686;2024-02-26T00:55:17;7.80;;;2.75;;
78901;SDS011;70441;44.758;37.686;2024-02-26T00:56:19;7.78;;;2.63;;
78901;SDS011;70441;44.758;37.686;2024-02-26T00:57:20;6.50;;;2.70;;
78901;SDS011;70441;44.758;37.686;2024-02-26T00:58:21;7.05;;;3.10;;
78901;SDS011;70441;44.758;37.686;2024-02-26T00:59:23;7.10;;;2.50;;
78901;SDS011;70441;44.758;37.686;2024-02-26T01:00:24;7.70;;;2.60;;
78901;SDS011;70441;44.758;37.686;2024-02-26T01:01:26;8.65;;;2.53;;
78901;SDS011;70441;44.758;37.686;2024-02-26T01:02:28;7.35;;;2.28;;
78901;SDS011;70441;44.758;37.686;2024-02-26T01:03:32;6.75;;;3.05;;
78901;SDS011;70441;44.758;37.686;2024-02-26T01:04:34;7.85;;;2.47;;
78901;SDS011;70441;44.758;37.686;2024-02-26T01:05:36;5.80;;;2.50;;
78901;SDS011;70441;44.758;37.686;2024-02-26T01:06:38;8.63;;;2.60;;
78901;SDS011;70441;44.758;37.686;2024-02-26T01:07:40;6.63;;;2.50;;
78901;SDS011;70441;44.758;37.686;2024-02-26T01:08:42;7.32;;;2.50;;
78901;SDS011;70441;44.758;37.686;2024-02-26T01:09:43;6.97;;;2.25;;
78901;SDS011;70441;44.758;37.686;2024-02-26T01:10:45;5.10;;;2.20;;
78901;SDS011;70441;44.758;37.686;2024-02-26T01:11:47;6.32;;;2.38;;
78901;SDS011;70441;44.758;37.686;2024-02-26T01:12:48;5.22;;;2.10;;
78901;SDS011;70441;44.758;37.686;2024-02-26T01:13:50;7.78;;;2.83;;
78901;SDS011;70441;44.758;37.686;2024-02-26T01:14:57;6.80;;;2.97;;
78901;SDS011;70441;44.758;37.686;2024-02-26T01:15:58;6.45;;;2.55;;
78901;SDS011;70441;44.758;37.686;2024-02-26T01:17:01;7.03;;;2.63;;
78901;SDS011;70441;44.758;37.686;2024-02-26T01:18:03;6.45;;;2.63;;
78901;SDS011;70441;44.758;37.686;2024-02-26T01:19:05;6.70;;;2.40;;
78901;SDS011;70441;44.758;37.686;2024-02-26T01:20:06;5.82;;;2.20;;
78901;SDS011;70441;44.758;37.686;2024-02-26T01:21:09;6.55;;;3.00;;
78901;SDS011;70441;44.758;37.686;2024-02-26T01:22:11;7.10;;;2.50;;
78901;SDS011;70441;44.758;37.686;2024-02-26T01:23:12;6.60;;;2.45;;
78901;SDS011;70441;44.758;37.686;2024-02-26T01:24:14;6.03;;;2.42;;
78901;SDS011;70441;44.758;37.686;2024-02-26T01:25:16;6.40;;;2.50;;
78901;SDS011;70441;44.758;37.686;2024-02-26T01:26:19;8.15;;;2.75;;
78901;SDS011;70441;44.758;37.686;2024-02-26T01:27:20;7.50;;;2.58;;
78901;SDS011;70441;44.758;37.686;2024-02-26T01:28:21;5.60;;;2.35;;
78901;SDS011;70441;44.758;37.686;2024-02-26T01:29:23;6.25;;;2.40;;
78901;SDS011;70441;44.758;37.686;2024-02-26T01:30:25;7.85;;;2.38;;
78901;SDS011;70441;44.758;37.686;2024-02-26T01:31:27;7.38;;;2.50;;
78901;SDS011;70441;44.758;37.686;2024-02-26T01:32:29;7.10;;;2.33;;
78901;SDS011;70441;44.758;37.686;2024-02-26T01:33:31;6.10;;;2.30;;
78901;SDS011;70441;44.758;37.686;2024-02-26T01:34:32;6.85;;;2.70;;
78901;SDS011;70441;44.758;37.686;2024-02-26T01:35:34;6.22;;;2.30;;
78901;SDS011;70441;44.758;37.686;2024-02-26T01:36:37;8.18;;;2.90;;
78901;SDS011;70441;44.758;37.686;2024-02-26T01:37:39;6.68;;;2.63;;
78901;SDS011;70441;44.758;37.686;2024-02-26T01:38:43;6.90;;;2.53;;
78901;SDS011;70441;44.758;37.686;2024-02-26T01:39:44;6.00;;;2.20;;
78901;SDS011;70441;44.758;37.686;2024-02-26T01:40:47;8.38;;;2.80;;
78901;SDS011;70441;44.758;37.686;2024-02-26T01:41:48;5.68;;;2.15;;
78901;SDS011;70441;44.758;37.686;2024-02-26T01:42:52;7.72;;;2.50;;
78901;SDS011;70441;44.758;37.686;2024-02-26T01:43:53;8.10;;;2.42;;
78901;SDS011;70441;44.758;37.686;2024-02-26T01:44:55;5.10;;;2.50;;
78901;SDS011;70441;44.758;37.686;2024-02-26T01:45:57;6.63;;;2.55;;
78901;SDS011;70441;44.758;37.686;2024-02-26T01:46:59;7.72;;;2.30;;
78901;SDS011;70441;44.758;37.686;2024-02-26T01:48:02;7.50;;;2.40;;
78901;SDS011;70441;44.758;37.686;2024-02-26T01:49:04;6.40;;;2.75;;
78901;SDS011;70441;44.758;37.686;2024-02-26T01:50:07;6.20;;;2.08;;
78901;SDS011;70441;44.758;37.686;2024-02-26T01:51:10;5.95;;;2.25;;
78901;SDS011;70441;44.758;37.686;2024-02-26T01:52:13;7.50;;;2.40;;
78901;SDS011;70441;44.758;37.686;2024-02-26T01:53:16;5.68;;;2.10;;
78901;SDS011;70441;44.758;37.686;2024-02-26T01:54:18;7.38;;;2.47;;
78901;SDS011;70441;44.758;37.686;2024-02-26T01:55:20;7.57;;;2.83;;
78901;SDS011;70441;44.758;37.686;2024-02-26T01:56:24;7.18;;;2.55;;
78901;SDS011;70441;44.758;37.686;2024-02-26T01:57:31;7.45;;;2.42;;
78901;SDS011;70441;44.758;37.686;2024-02-26T01:58:32;6.43;;;2.58;;
78901;SDS011;70441;44.758;37.686;2024-02-26T01:59:36;6.72;;;2.95;;
78901;SDS011;70441;44.758;37.686;2024-02-26T02:00:38;7.75;;;2.60;;
78901;SDS011;70441;44.758;37.686;2024-02-26T02:01:41;6.25;;;2.40;;
78901;SDS011;70441;44.758;37.686;2024-02-26T02:02:46;6.95;;;2.25;;
78901;SDS011;70441;44.758;37.686;2024-02-26T02:04:50;7.68;;;2.88;;
78901;SDS011;70441;44.758;37.686;2024-02-26T02:06:54;7.65;;;2.70;;
78901;SDS011;70441;44.758;37.686;2024-02-26T02:07:58;7.50;;;2.90;;
78901;SDS011;70441;44.758;37.686;2024-02-26T02:09:00;7.70;;;2.92;;
78901;SDS011;70441;44.758;37.686;2024-02-26T02:10:07;8.75;;;3.15;;
78901;SDS011;70441;44.758;37.686;2024-02-26T02:11:09;8.80;;;2.88;;
78901;SDS011;70441;44.758;37.686;2024-02-26T02:12:12;9.85;;;3.13;;
78901;SDS011;70441;44.758;37.686;2024-02-26T02:13:14;9.48;;;3.38;;
78901;SDS011;70441;44.758;37.686;2024-02-26T02:14:17;10.18;;;2.95;;
78901;SDS011;70441;44.758;37.686;2024-02-26T02:15:18;7.10;;;3.15;;
78901;SDS011;70441;44.758;37.686;2024-02-26T02:16:20;8.68;;;3.10;;
78901;SDS011;70441;44.758;37.686;2024-02-26T02:17:21;9.07;;;3.08;;
78901;SDS011;70441;44.758;37.686;2024-02-26T02:18:23;8.75;;;3.53;;
78901;SDS011;70441;44.758;37.686;2024-02-26T02:19:24;10.27;;;3.28;;
78901;SDS011;70441;44.758;37.686;2024-02-26T02:20:32;9.90;;;3.00;;
78901;SDS011;70441;44.758;37.686;2024-02-26T02:21:37;12.07;;;3.35;;
78901;SDS011;70441;44.758;37.686;2024-02-26T02:22:38;9.38;;;3.40;;
78901;SDS011;70441;44.758;37.686;2024-02-26T02:23:39;7.85;;;3.20;;
78901;SDS011;70441;44.758;37.686;2024-02-26T02:24:43;10.65;;;3.88;;
78901;SDS011;70441;44.758;37.686;2024-02-26T02:25:44;9.68;;;3.42;;
78901;SDS011;70441;44.758;37.686;2024-02-26T02:26:46;8.45;;;2.75;;
78901;SDS011;70441;44.758;37.686;2024-02-26T02:27:47;8.93;;;3.20;;
78901;SDS011;70441;44.758;37.686;2024-02-26T02:28:49;7.22;;;2.90;;
78901;SDS011;70441;44.758;37.686;2024-02-26T02:29:50;11.20;;;3.13;;
78901;SDS011;70441;44.758;37.686;2024-02-26T02:30:52;9.60;;;3.22;;
78901;SDS011;70441;44.758;37.686;2024-02-26T02:31:53;8.00;;;2.85;;
78901;SDS011;70441;44.758;37.686;2024-02-26T02:32:55;9.70;;;3.00;;
78901;SDS011;70441;44.758;37.686;2024-02-26T02:33:59;17.30;;;4.03;;
78901;SDS011;70441;44.758;37.686;2024-02-26T02:35:01;26.25;;;4.75;;
78901;SDS011;70441;44.758;37.686;2024-02-26T02:36:03;19.80;;;4.90;;
78901;SDS011;70441;44.758;37.686;2024-02-26T02:37:04;17.25;;;3.45;;
78901;SDS011;70441;44.758;37.686;2024-02-26T02:38:06;18.45;;;4.05;;
78901;SDS011;70441;44.758;37.686;2024-02-26T02:39:07;15.52;;;4.18;;
78901;SDS011;70441;44.758;37.686;2024-02-26T02:40:09;11.82;;;3.58;;
78901;SDS011;70441;44.758;37.686;2024-02-26T02:41:10;12.65;;;3.72;;
78901;SDS011;70441;44.758;37.686;2024-02-26T02:42:12;7.18;;;2.38;;
78901;SDS011;70441;44.758;37.686;2024-02-26T02:43:14;11.75;;;2.83;;
78901;SDS011;70441;44.758;37.686;2024-02-26T02:44:15;17.08;;;3.20;;
78901;SDS011;70441;44.758;37.686;2024-02-26T02:45:16;8.65;;;2.55;;
78901;SDS011;70441;44.758;37.686;2024-02-26T02:46:18;8.82;;;3.10;;
78901;SDS011;70441;44.758;37.686;2024-02-26T02:47:20;9.02;;;2.78;;
78901;SDS011;70441;44.758;37.686;2024-02-26T02:48:21;9.85;;;3.08;;
78901;SDS011;70441;44.758;37.686;2024-02-26T02:49:23;12.07;;;2.88;;
78901;SDS011;70441;44.758;37.686;2024-02-26T02:50:24;8.05;;;2.70;;
78901;SDS011;70441;44.758;37.686;2024-02-26T02:51:26;8.68;;;2.65;;
78901;SDS011;70441;44.758;37.686;2024-02-26T02:52:27;8.43;;;2.90;;
78901;SDS011;70441;44.758;37.686;2024-02-26T02:53:29;10.57;;;2.80;;
78901;SDS011;70441;44.758;37.686;2024-02-26T02:54:30;10.45;;;2.60;;
78901;SDS011;70441;44.758;37.686;2024-02-26T02:55:31;6.18;;;2.25;;
78901;SDS011;70441;44.758;37.686;2024-02-26T02:56:33;10.82;;;2.88;;
78901;SDS011;70441;44.758;37.686;2024-02-26T02:57:34;10.38;;;3.13;;
78901;SDS011;70441;44.758;37.686;2024-02-26T02:58:41;11.45;;;2.95;;
78901;SDS011;70441;44.758;37.686;2024-02-26T02:59:43;13.35;;;3.08;;
78901;SDS011;70441;44.758;37.686;2024-02-26T03:00:44;14.35;;;2.72;;
78901;SDS011;70441;44.758;37.686;2024-02-26T03:01:46;9.52;;;2.65;;
78901;SDS011;70441;44.758;37.686;2024-02-26T03:02:47;6.88;;;2.47;;
78901;SDS011;70441;44.758;37.686;2024-02-26T03:03:49;6.70;;;2.30;;
78901;SDS011;70441;44.758;37.686;2024-02-26T03:04:52;8.43;;;3.22;;
78901;SDS011;70441;44.758;37.686;2024-02-26T03:05:53;12.50;;;3.08;;
78901;SDS011;70441;44.758;37.686;2024-02-26T03:06:54;15.55;;;3.13;;
78901;SDS011;70441;44.758;37.686;2024-02-26T03:07:56;18.67;;;3.55;;
78901;SDS011;70441;44.758;37.686;2024-02-26T03:08:57;49.03;;;6.25;;
78901;SDS011;70441;44.758;37.686;2024-02-26T03:09:58;8.48;;;2.90;;
78901;SDS011;70441;44.758;37.686;2024-02-26T03:11:00;15.20;;;3.55;;
78901;SDS011;70441;44.758;37.686;2024-02-26T03:12:01;11.48;;;2.67;;
78901;SDS011;70441;44.758;37.686;2024-02-26T03:13:03;22.88;;;3.53;;
78901;SDS011;70441;44.758;37.686;2024-02-26T03:14:04;17.55;;;2.55;;
78901;SDS011;70441;44.758;37.686;2024-02-26T03:15:06;23.92;;;2.72;;
78901;SDS011;70441;44.758;37.686;2024-02-26T03:16:07;16.52;;;3.47;;
78901;SDS011;70441;44.758;37.686;2024-02-26T03:17:09;15.25;;;2.83;;
78901;SDS011;70441;44.758;37.686;2024-02-26T03:18:10;8.30;;;2.70;;
78901;SDS011;70441;44.758;37.686;2024-02-26T03:19:15;7.18;;;2.70;;
78901;SDS011;70441;44.758;37.686;2024-02-26T03:20:19;8.68;;;2.60;;
78901;SDS011;70441;44.758;37.686;2024-02-26T03:21:21;8.95;;;2.53;;
78901;SDS011;70441;44.758;37.686;2024-02-26T03:22:22;30.45;;;4.80;;
78901;SDS011;70441;44.758;37.686;2024-02-26T03:23:23;13.48;;;3.30;;
78901;SDS011;70441;44.758;37.686;2024-02-26T03:24:25;9.23;;;2.55;;
78901;SDS011;70441;44.758;37.686;2024-02-26T03:25:26;8.50;;;2.92;;
78901;SDS011;70441;44.758;37.686;2024-02-26T03:26:28;10.05;;;3.15;;
78901;SDS011;70441;44.758;37.686;2024-02-26T03:27:29;8.02;;;2.65;;
78901;SDS011;70441;44.758;37.686;2024-02-26T03:28:30;8.07;;;3.03;;
78901;SDS011;70441;44.758;37.686;2024-02-26T03:29:34;11.35;;;2.67;;
78901;SDS011;70441;44.758;37.686;2024-02-26T03:30:35;7.35;;;2.53;;
78901;SDS011;70441;44.758;37.686;2024-02-26T03:31:36;6.57;;;2.45;;
78901;SDS011;70441;44.758;37.686;2024-02-26T03:32:38;9.25;;;2.33;;
78901;SDS011;70441;44.758;37.686;2024-02-26T03:33:39;7.32;;;2.50;;
78901;SDS011;70441;44.758;37.686;2024-02-26T03:34:40;7.40;;;2.53;;
78901;SDS011;70441;44.758;37.686;2024-02-26T03:35:42;7.45;;;2.35;;
78901;SDS011;70441;44.758;37.686;2024-02-26T03:36:44;9.73;;;3.13;;
78901;SDS011;70441;44.758;37.686;2024-02-26T03:37:45;5.65;;;2.30;;
78901;SDS011;70441;44.758;37.686;2024-02-26T03:38:48;8.70;;;2.50;;
78901;SDS011;70441;44.758;37.686;2024-02-26T03:39:49;6.50;;;2.55;;
78901;SDS011;70441;44.758;37.686;2024-02-26T03:40:51;6.93;;;2.30;;
78901;SDS011;70441;44.758;37.686;2024-02-26T03:41:52;8.25;;;2.70;;
78901;SDS011;70441;44.758;37.686;2024-02-26T03:42:53;7.32;;;2.70;;
78901;SDS011;70441;44.758;37.686;2024-02-26T03:43:55;9.45;;;2.92;;
78901;SDS011;70441;44.758;37.686;2024-02-26T03:44:57;9.25;;;2.90;;
78901;SDS011;70441;44.758;37.686;2024-02-26T03:45:58;14.50;;;3.00;;
78901;SDS011;70441;44.758;37.686;2024-02-26T03:47:00;14.75;;;2.83;;
78901;SDS011;70441;44.758;37.686;2024-02-26T03:48:02;18.42;;;3.60;;
78901;SDS011;70441;44.758;37.686;2024-02-26T03:49:03;16.00;;;3.20;;
78901;SDS011;70441;44.758;37.686;2024-02-26T03:50:05;9.52;;;3.22;;
78901;SDS011;70441;44.758;37.686;2024-02-26T03:51:08;7.53;;;2.92;;
78901;SDS011;70441;44.758;37.686;2024-02-26T03:52:11;8.50;;;2.50;;
78901;SDS011;70441;44.758;37.686;2024-02-26T03:53:12;7.72;;;2.60;;
78901;SDS011;70441;44.758;37.686;2024-02-26T03:54:14;34.60;;;3.78;;
78901;SDS011;70441;44.758;37.686;2024-02-26T03:55:15;7.70;;;2.45;;
78901;SDS011;70441;44.758;37.686;2024-02-26T03:56:21;6.65;;;2.50;;
78901;SDS011;70441;44.758;37.686;2024-02-26T03:57:23;7.10;;;2.60;;
78901;SDS011;70441;44.758;37.686;2024-02-26T03:58:25;7.47;;;2.50;;
78901;SDS011;70441;44.758;37.686;2024-02-26T03:59:26;6.57;;;2.13;;
78901;SDS011;70441;44.758;37.686;2024-02-26T04:00:28;19.05;;;3.38;;
78901;SDS011;70441;44.758;37.686;2024-02-26T04:01:31;6.80;;;2.25;;
78901;SDS011;70441;44.758;37.686;2024-02-26T04:03:34;7.00;;;2.33;;
78901;SDS011;70441;44.758;37.686;2024-02-26T04:04:36;5.95;;;2.25;;
78901;SDS011;70441;44.758;37.686;2024-02-26T04:05:37;7.60;;;2.40;;
78901;SDS011;70441;44.758;37.686;2024-02-26T04:06:39;6.75;;;2.60;;
78901;SDS011;70441;44.758;37.686;2024-02-26T04:07:40;6.05;;;2.30;;
78901;SDS011;70441;44.758;37.686;2024-02-26T04:08:42;10.65;;;2.75;;
78901;SDS011;70441;44.758;37.686;2024-02-26T04:09:44;11.27;;;2.75;;
78901;SDS011;70441;44.758;37.686;2024-02-26T04:10:45;8.77;;;2.67;;
78901;SDS011;70441;44.758;37.686;2024-02-26T04:11:47;5.50;;;2.42;;
78901;SDS011;70441;44.758;37.686;2024-02-26T04:12:48;8.93;;;2.17;;
78901;SDS011;70441;44.758;37.686;2024-02-26T04:13:50;7.20;;;2.03;;
78901;SDS011;70441;44.758;37.686;2024-02-26T04:14:53;7.15;;;2.20;;
78901;SDS011;70441;44.758;37.686;2024-02-26T04:15:54;6.82;;;2.60;;
78901;SDS011;70441;44.758;37.686;2024-02-26T04:16:55;7.80;;;2.10;;
78901;SDS011;70441;44.758;37.686;2024-02-26T04:17:57;6.90;;;2.28;;
78901;SDS011;70441;44.758;37.686;2024-02-26T04:18:58;8.35;;;2.22;;
78901;SDS011;70441;44.758;37.686;2024-02-26T04:19:59;7.20;;;2.40;;
78901;SDS011;70441;44.758;37.686;2024-02-26T04:21:01;7.95;;;2.42;;
78901;SDS011;70441;44.758;37.686;2024-02-26T04:22:02;6.22;;;1.88;;
78901;SDS011;70441;44.758;37.686;2024-02-26T04:23:04;6.68;;;2.22;;
78901;SDS011;70441;44.758;37.686;2024-02-26T04:24:05;5.90;;;2.15;;
78901;SDS011;70441;44.758;37.686;2024-02-26T04:25:07;8.60;;;2.15;;
78901;SDS011;70441;44.758;37.686;2024-02-26T04:26:09;6.50;;;1.98;;
78901;SDS011;70441;44.758;37.686;2024-02-26T04:27:10;7.93;;;2.45;;
78901;SDS011;70441;44.758;37.686;2024-02-26T04:28:12;6.63;;;2.35;;
78901;SDS011;70441;44.758;37.686;2024-02-26T04:29:13;8.45;;;2.95;;
78901;SDS011;70441;44.758;37.686;2024-02-26T04:30:15;7.25;;;2.22;;
78901;SDS011;70441;44.758;37.686;2024-02-26T04:31:17;6.25;;;2.35;;
78901;SDS011;70441;44.758;37.686;2024-02-26T04:32:19;10.48;;;2.55;;
78901;SDS011;70441;44.758;37.686;2024-02-26T04:33:21;8.82;;;2.13;;
78901;SDS011;70441;44.758;37.686;2024-02-26T04:34:23;6.53;;;2.33;;
78901;SDS011;70441;44.758;37.686;2024-02-26T04:35:24;11.00;;;2.50;;
78901;SDS011;70441;44.758;37.686;2024-02-26T04:36:25;8.52;;;2.67;;
78901;SDS011;70441;44.758;37.686;2024-02-26T04:37:27;6.63;;;2.65;;
78901;SDS011;70441;44.758;37.686;2024-02-26T04:38:31;7.70;;;2.33;;
78901;SDS011;70441;44.758;37.686;2024-02-26T04:39:33;10.18;;;2.38;;
78901;SDS011;70441;44.758;37.686;2024-02-26T04:40:34;6.93;;;2.25;;
78901;SDS011;70441;44.758;37.686;2024-02-26T04:41:36;9.55;;;2.72;;
78901;SDS011;70441;44.758;37.686;2024-02-26T04:42:37;6.57;;;2.42;;
78901;SDS011;70441;44.758;37.686;2024-02-26T04:43:38;8.88;;;2.75;;
78901;SDS011;70441;44.758;37.686;2024-02-26T04:44:42;6.25;;;2.42;;
78901;SDS011;70441;44.758;37.686;2024-02-26T04:45:43;5.43;;;2.28;;
78901;SDS011;70441;44.758;37.686;2024-02-26T04:46:45;10.43;;;2.40;;
78901;SDS011;70441;44.758;37.686;2024-02-26T04:47:47;10.07;;;2.70;;
78901;SDS011;70441;44.758;37.686;2024-02-26T04:48:48;7.80;;;2.20;;
78901;SDS011;70441;44.758;37.686;2024-02-26T04:49:50;7.03;;;2.83;;
78901;SDS011;70441;44.758;37.686;2024-02-26T04:50:51;8.57;;;3.17;;
78901;SDS011;70441;44.758;37.686;2024-02-26T04:51:53;6.88;;;2.50;;
78901;SDS011;70441;44.758;37.686;2024-02-26T04:52:54;8.10;;;2.70;;
78901;SDS011;70441;44.758;37.686;2024-02-26T04:53:56;7.28;;;2.25;;
78901;SDS011;70441;44.758;37.686;2024-02-26T04:54:58;6.47;;;2.10;;
78901;SDS011;70441;44.758;37.686;2024-02-26T04:56:00;8.57;;;2.58;;
78901;SDS011;70441;44.758;37.686;2024-02-26T04:57:02;8.35;;;2.85;;
78901;SDS011;70441;44.758;37.686;2024-02-26T04:58:03;7.97;;;2.75;;
78901;SDS011;70441;44.758;37.686;2024-02-26T04:59:05;7.70;;;2.58;;
78901;SDS011;70441;44.758;37.686;2024-02-26T05:00:06;7.57;;;2.50;;
78901;SDS011;70441;44.758;37.686;2024-02-26T05:01:09;10.80;;;2.72;;
78901;SDS011;70441;44.758;37.686;2024-02-26T05:02:12;5.15;;;2.38;;
78901;SDS011;70441;44.758;37.686;2024-02-26T05:03:13;9.02;;;2.58;;
78901;SDS011;70441;44.758;37.686;2024-02-26T05:04:16;11.52;;;2.97;;
78901;SDS011;70441;44.758;37.686;2024-02-26T05:05:18;10.20;;;3.20;;
78901;SDS011;70441;44.758;37.686;2024-02-26T05:06:19;9.15;;;3.03;;
78901;SDS011;70441;44.758;37.686;2024-02-26T05:07:21;11.55;;;2.90;;
78901;SDS011;70441;44.758;37.686;2024-02-26T05:08:22;13.80;;;3.15;;
78901;SDS011;70441;44.758;37.686;2024-02-26T05:09:24;14.48;;;3.00;;
78901;SDS011;70441;44.758;37.686;2024-02-26T05:10:25;7.57;;;2.70;;
78901;SDS011;70441;44.758;37.686;2024-02-26T05:11:26;8.05;;;2.90;;
78901;SDS011;70441;44.758;37.686;2024-02-26T05:12:28;7.90;;;3.20;;
78901;SDS011;70441;44.758;37.686;2024-02-26T05:13:29;9.40;;;3.10;;
78901;SDS011;70441;44.758;37.686;2024-02-26T05:14:31;10.75;;;3.20;;
78901;SDS011;70441;44.758;37.686;2024-02-26T05:15:32;7.93;;;3.00;;
78901;SDS011;70441;44.758;37.686;2024-02-26T05:16:34;5.90;;;2.83;;
78901;SDS011;70441;44.758;37.686;2024-02-26T05:17:35;7.75;;;2.85;;
78901;SDS011;70441;44.758;37.686;2024-02-26T05:18:37;6.72;;;2.80;;
78901;SDS011;70441;44.758;37.686;2024-02-26T05:19:38;15.90;;;3.55;;
78901;SDS011;70441;44.758;37.686;2024-02-26T05:20:39;8.52;;;3.22;;
78901;SDS011;70441;44.758;37.686;2024-02-26T05:21:41;6.60;;;2.88;;
78901;SDS011;70441;44.758;37.686;2024-02-26T05:22:44;6.95;;;2.88;;
78901;SDS011;70441;44.758;37.686;2024-02-26T05:23:46;6.55;;;2.78;;
78901;SDS011;70441;44.758;37.686;2024-02-26T05:24:48;9.93;;;3.13;;
78901;SDS011;70441;44.758;37.686;2024-02-26T05:25:49;13.40;;;3.08;;
78901;SDS011;70441;44.758;37.686;2024-02-26T05:26:51;8.88;;;3.10;;
78901;SDS011;70441;44.758;37.686;2024-02-26T05:27:52;11.32;;;3.20;;
78901;SDS011;70441;44.758;37.686;2024-02-26T05:28:53;9.43;;;2.92;;
78901;SDS011;70441;44.758;37.686;2024-02-26T05:30:00;11.73;;;3.40;;
78901;SDS011;70441;44.758;37.686;2024-02-26T05:31:01;12.32;;;2.75;;
78901;SDS011;70441;44.758;37.686;2024-02-26T05:32:04;15.55;;;3.00;;
78901;SDS011;70441;44.758;37.686;2024-02-26T05:33:07;10.95;;;3.28;;
78901;SDS011;70441;44.758;37.686;2024-02-26T05:34:08;15.10;;;2.53;;
78901;SDS011;70441;44.758;37.686;2024-02-26T05:35:10;8.98;;;2.85;;
78901;SDS011;70441;44.758;37.686;2024-02-26T05:36:17;12.45;;;3.25;;
78901;SDS011;70441;44.758;37.686;2024-02-26T05:37:23;6.00;;;2.60;;
78901;SDS011;70441;44.758;37.686;2024-02-26T05:38:24;11.13;;;3.53;;
78901;SDS011;70441;44.758;37.686;2024-02-26T05:39:25;8.43;;;3.67;;
78901;SDS011;70441;44.758;37.686;2024-02-26T05:40:27;7.72;;;3.40;;
78901;SDS011;70441;44.758;37.686;2024-02-26T05:41:28;12.35;;;2.90;;
78901;SDS011;70441;44.758;37.686;2024-02-26T05:42:30;8.63;;;3.90;;
78901;SDS011;70441;44.758;37.686;2024-02-26T05:43:31;8.95;;;3.17;;
78901;SDS011;70441;44.758;37.686;2024-02-26T05:44:33;8.25;;;3.45;;
78901;SDS011;70441;44.758;37.686;2024-02-26T05:45:34;12.77;;;3.88;;
78901;SDS011;70441;44.758;37.686;2024-02-26T05:46:36;12.75;;;4.57;;
78901;SDS011;70441;44.758;37.686;2024-02-26T05:47:37;18.67;;;4.25;;
78901;SDS011;70441;44.758;37.686;2024-02-26T05:48:43;14.07;;;4.13;;
78901;SDS011;70441;44.758;37.686;2024-02-26T05:49:48;16.25;;;4.03;;
78901;SDS011;70441;44.758;37.686;2024-02-26T05:50:50;9.25;;;3.58;;
78901;SDS011;70441;44.758;37.686;2024-02-26T05:51:51;12.50;;;3.40;;
78901;SDS011;70441;44.758;37.686;2024-02-26T05:52:52;12.10;;;3.80;;
78901;SDS011;70441;44.758;37.686;2024-02-26T05:53:54;14.73;;;3.60;;
78901;SDS011;70441;44.758;37.686;2024-02-26T05:54:55;9.13;;;3.30;;
78901;SDS011;70441;44.758;37.686;2024-02-26T05:55:57;9.98;;;3.63;;
78901;SDS011;70441;44.758;37.686;2024-02-26T05:56:58;16.60;;;4.40;;
78901;SDS011;70441;44.758;37.686;2024-02-26T05:57:59;12.88;;;4.03;;
78901;SDS011;70441;44.758;37.686;2024-02-26T05:59:01;11.02;;;2.80;;
78901;SDS011;70441;44.758;37.686;2024-02-26T06:00:02;11.82;;;4.68;;
78901;SDS011;70441;44.758;37.686;2024-02-26T06:01:17;10.77;;;2.97;;
78901;SDS011;70441;44.758;37.686;2024-02-26T06:02:19;8.73;;;3.17;;
78901;SDS011;70441;44.758;37.686;2024-02-26T06:03:20;7.45;;;3.35;;
78901;SDS011;70441;44.758;37.686;2024-02-26T06:04:22;6.95;;;2.90;;
78901;SDS011;70441;44.758;37.686;2024-02-26T06:05:23;7.53;;;3.30;;
78901;SDS011;70441;44.758;37.686;2024-02-26T06:06:24;9.30;;;3.50;;
78901;SDS011;70441;44.758;37.686;2024-02-26T06:07:26;12.90;;;3.65;;
78901;SDS011;70441;44.758;37.686;2024-02-26T06:08:27;16.67;;;4.07;;
78901;SDS011;70441;44.758;37.686;2024-02-26T06:09:28;12.02;;;4.00;;